sensor_id;sensor_type;location;lat;lon;timestamp;temperature;humidity
78448;SHT31;67742;51.972;5.682;2023-03-21T00:02:21;13.2;70.0
78448;SHT31;67742;51.972;5.682;2023-03-21T00:04:52;13.2;70.2
78448;SHT31;67742;51.972;5.682;2023-03-21T00:07:22;13.2;70.2
78448;SHT31;67742;51.972;5.682;2023-03-21T00:09:52;13.2;69.5
78448;SHT31;67742;51.972;5.682;2023-03-21T00:12:22;13.2;70.4
78448;SHT31;67742;51.972;5.682;2023-03-21T00:14:52;13.3;70.2
78448;SHT31;67742;51.972;5.682;2023-03-21T00:17:23;13.3;70.2
78448;SHT31;67742;51.972;5.682;2023-03-21T00:19:57;13.3;70.2
78448;SHT31;67742;51.972;5.682;2023-03-21T00:22:27;13.3;69.9
78448;SHT31;67742;51.972;5.682;2023-03-21T00:24:57;13.3;70.0
78448;SHT31;67742;51.972;5.682;2023-03-21T00:27:28;13.4;69.7
78448;SHT31;67742;51.972;5.682;2023-03-21T00:30:02;13.4;69.9
78448;SHT31;67742;51.972;5.682;2023-03-21T00:32:34;13.4;69.6
78448;SHT31;67742;51.972;5.682;2023-03-21T00:35:04;13.4;69.7
78448;SHT31;67742;51.972;5.682;2023-03-21T00:37:36;13.3;69.6
78448;SHT31;67742;51.972;5.682;2023-03-21T00:40:08;13.3;69.8
78448;SHT31;67742;51.972;5.682;2023-03-21T00:42:40;13.3;70.0
78448;SHT31;67742;51.972;5.682;2023-03-21T00:45:11;13.3;70.1
78448;SHT31;67742;51.972;5.682;2023-03-21T00:47:45;13.3;70.1
78448;SHT31;67742;51.972;5.682;2023-03-21T00:50:15;13.2;70.0
78448;SHT31;67742;51.972;5.682;2023-03-21T00:52:46;13.2;69.9
78448;SHT31;67742;51.972;5.682;2023-03-21T00:55:18;13.2;70.0
78448;SHT31;67742;51.972;5.682;2023-03-21T00:57:48;13.2;70.1
78448;SHT31;67742;51.972;5.682;2023-03-21T01:00:21;13.2;69.9
78448;SHT31;67742;51.972;5.682;2023-03-21T01:02:51;13.2;69.8
78448;SHT31;67742;51.972;5.682;2023-03-21T01:05:27;13.2;69.9
78448;SHT31;67742;51.972;5.682;2023-03-21T01:08:33;13.2;69.8
78448;SHT31;67742;51.972;5.682;2023-03-21T01:11:07;13.2;69.8
78448;SHT31;67742;51.972;5.682;2023-03-21T01:13:39;13.2;69.6
78448;SHT31;67742;51.972;5.682;2023-03-21T01:16:11;13.2;69.6
78448;SHT31;67742;51.972;5.682;2023-03-21T01:18:41;13.2;69.2
78448;SHT31;67742;51.972;5.682;2023-03-21T01:21:12;13.2;69.6
78448;SHT31;67742;51.972;5.682;2023-03-21T01:23:43;13.2;69.3
78448;SHT31;67742;51.972;5.682;2023-03-21T01:26:14;13.2;69.3
78448;SHT31;67742;51.972;5.682;2023-03-21T01:28:44;13.2;69.1
78448;SHT31;67742;51.972;5.682;2023-03-21T01:31:16;13.2;69.0
78448;SHT31;67742;51.972;5.682;2023-03-21T01:33:48;13.2;69.2
78448;SHT31;67742;51.972;5.682;2023-03-21T01:36:20;13.2;69.3
78448;SHT31;67742;51.972;5.682;2023-03-21T01:38:51;13.1;69.3
78448;SHT31;67742;51.972;5.682;2023-03-21T01:41:25;13.1;69.4
78448;SHT31;67742;51.972;5.682;2023-03-21T01:43:57;13.1;68.9
78448;SHT31;67742;51.972;5.682;2023-03-21T01:46:41;13.1;69.3
78448;SHT31;67742;51.972;5.682;2023-03-21T01:49:17;13.1;69.2
78448;SHT31;67742;51.972;5.682;2023-03-21T01:51:57;13.1;69.4
78448;SHT31;67742;51.972;5.682;2023-03-21T01:54:33;13.1;69.4
78448;SHT31;67742;51.972;5.682;2023-03-21T01:57:12;13.1;69.4
78448;SHT31;67742;51.972;5.682;2023-03-21T01:59:49;13.1;69.6
78448;SHT31;67742;51.972;5.682;2023-03-21T02:02:25;13.1;69.6
78448;SHT31;67742;51.972;5.682;2023-03-21T02:05:01;13.1;69.6
78448;SHT31;67742;51.972;5.682;2023-03-21T02:07:35;13.1;69.6
78448;SHT31;67742;51.972;5.682;2023-03-21T02:10:57;13.1;69.4
78448;SHT31;67742;51.972;5.682;2023-03-21T02:13:30;13.1;69.7
78448;SHT31;67742;51.972;5.682;2023-03-21T02:16:24;13.1;69.5
78448;SHT31;67742;51.972;5.682;2023-03-21T02:18:59;13.1;69.3
78448;SHT31;67742;51.972;5.682;2023-03-21T02:22:10;13.1;69.3
78448;SHT31;67742;51.972;5.682;2023-03-21T02:25:38;13.1;69.3
78448;SHT31;67742;51.972;5.682;2023-03-21T02:28:56;13.1;69.7
78448;SHT31;67742;51.972;5.682;2023-03-21T02:31:36;13.1;69.7
78448;SHT31;67742;51.972;5.682;2023-03-21T02:34:24;13.1;69.4
78448;SHT31;67742;51.972;5.682;2023-03-21T02:37:34;13.1;69.7
78448;SHT31;67742;51.972;5.682;2023-03-21T02:40:15;13.1;69.7
78448;SHT31;67742;51.972;5.682;2023-03-21T02:42:57;13.1;69.7
78448;SHT31;67742;51.972;5.682;2023-03-21T02:45:39;13.1;69.5
78448;SHT31;67742;51.972;5.682;2023-03-21T02:48:14;13.1;69.6
78448;SHT31;67742;51.972;5.682;2023-03-21T02:50:50;13.1;69.5
78448;SHT31;67742;51.972;5.682;2023-03-21T02:53:30;13.1;69.6
78448;SHT31;67742;51.972;5.682;2023-03-21T02:56:03;13.1;69.8
78448;SHT31;67742;51.972;5.682;2023-03-21T02:58:39;13.1;69.6
78448;SHT31;67742;51.972;5.682;2023-03-21T03:01:28;13.1;69.8
78448;SHT31;67742;51.972;5.682;2023-03-21T03:03:59;13.1;69.8
78448;SHT31;67742;51.972;5.682;2023-03-21T03:06:39;13.1;69.8
78448;SHT31;67742;51.972;5.682;2023-03-21T03:09:26;13.1;69.9
78448;SHT31;67742;51.972;5.682;2023-03-21T03:12:08;13.1;69.5
78448;SHT31;67742;51.972;5.682;2023-03-21T03:14:54;13.1;69.6
78448;SHT31;67742;51.972;5.682;2023-03-21T03:17:42;13.1;69.9
78448;SHT31;67742;51.972;5.682;2023-03-21T03:20:21;13.1;69.8
78448;SHT31;67742;51.972;5.682;2023-03-21T03:23:02;13.1;69.8
78448;SHT31;67742;51.972;5.682;2023-03-21T03:25:42;13.1;70.0
78448;SHT31;67742;51.972;5.682;2023-03-21T03:28:20;13.1;70.0
78448;SHT31;67742;51.972;5.682;2023-03-21T03:30:53;13.1;69.7
78448;SHT31;67742;51.972;5.682;2023-03-21T03:33:28;13.1;69.9
78448;SHT31;67742;51.972;5.682;2023-03-21T03:36:02;13.1;69.8
78448;SHT31;67742;51.972;5.682;2023-03-21T03:38:34;13.1;70.1
78448;SHT31;67742;51.972;5.682;2023-03-21T03:41:11;13.1;69.9
78448;SHT31;67742;51.972;5.682;2023-03-21T03:43:48;13.1;69.8
78448;SHT31;67742;51.972;5.682;2023-03-21T03:46:29;13.1;69.7
78448;SHT31;67742;51.972;5.682;2023-03-21T03:49:09;13.1;69.6
78448;SHT31;67742;51.972;5.682;2023-03-21T03:51:51;13.1;69.6
78448;SHT31;67742;51.972;5.682;2023-03-21T03:54:29;13.1;69.7
78448;SHT31;67742;51.972;5.682;2023-03-21T03:57:01;13.1;69.5
78448;SHT31;67742;51.972;5.682;2023-03-21T03:59:35;13.1;69.1
78448;SHT31;67742;51.972;5.682;2023-03-21T04:02:06;13.1;69.0
78448;SHT31;67742;51.972;5.682;2023-03-21T04:04:39;13.1;69.4
78448;SHT31;67742;51.972;5.682;2023-03-21T04:07:12;13.1;69.2
78448;SHT31;67742;51.972;5.682;2023-03-21T04:09:44;13.1;69.1
78448;SHT31;67742;51.972;5.682;2023-03-21T04:12:14;13.1;69.0
78448;SHT31;67742;51.972;5.682;2023-03-21T04:14:54;13.1;69.0
78448;SHT31;67742;51.972;5.682;2023-03-21T04:17:26;13.1;68.7
78448;SHT31;67742;51.972;5.682;2023-03-21T04:19:56;13.1;69.0
78448;SHT31;67742;51.972;5.682;2023-03-21T04:22:25;13.1;68.7
78448;SHT31;67742;51.972;5.682;2023-03-21T04:24:56;13.1;68.7
78448;SHT31;67742;51.972;5.682;2023-03-21T04:27:27;13.1;68.7
78448;SHT31;67742;51.972;5.682;2023-03-21T04:30:03;13.1;68.7
78448;SHT31;67742;51.972;5.682;2023-03-21T04:32:33;13.1;68.7
78448;SHT31;67742;51.972;5.682;2023-03-21T04:35:09;13.1;68.4
78448;SHT31;67742;51.972;5.682;2023-03-21T04:37:40;13.1;68.4
78448;SHT31;67742;51.972;5.682;2023-03-21T04:40:15;13.1;68.3
78448;SHT31;67742;51.972;5.682;2023-03-21T04:42:47;13.1;68.3
78448;SHT31;67742;51.972;5.682;2023-03-21T04:45:20;13.1;68.2
78448;SHT31;67742;51.972;5.682;2023-03-21T04:47:52;13.1;68.3
78448;SHT31;67742;51.972;5.682;2023-03-21T04:50:25;13.1;68.1
78448;SHT31;67742;51.972;5.682;2023-03-21T04:52:59;13.2;67.9
78448;SHT31;67742;51.972;5.682;2023-03-21T04:55:34;13.2;68.0
78448;SHT31;67742;51.972;5.682;2023-03-21T04:58:05;13.2;68.0
78448;SHT31;67742;51.972;5.682;2023-03-21T05:00:35;13.2;67.9
78448;SHT31;67742;51.972;5.682;2023-03-21T05:03:09;13.2;67.7
78448;SHT31;67742;51.972;5.682;2023-03-21T05:05:44;13.2;67.7
78448;SHT31;67742;51.972;5.682;2023-03-21T05:08:18;13.2;67.7
78448;SHT31;67742;51.972;5.682;2023-03-21T05:10:48;13.2;67.7
78448;SHT31;67742;51.972;5.682;2023-03-21T05:13:21;13.2;67.7
78448;SHT31;67742;51.972;5.682;2023-03-21T05:15:51;13.2;67.6
78448;SHT31;67742;51.972;5.682;2023-03-21T05:18:22;13.2;67.6
78448;SHT31;67742;51.972;5.682;2023-03-21T05:20:54;13.2;67.6
78448;SHT31;67742;51.972;5.682;2023-03-21T05:23:31;13.2;67.6
78448;SHT31;67742;51.972;5.682;2023-03-21T05:26:06;13.2;67.6
78448;SHT31;67742;51.972;5.682;2023-03-21T05:28:37;13.1;67.6
78448;SHT31;67742;51.972;5.682;2023-03-21T05:31:08;13.1;67.7
78448;SHT31;67742;51.972;5.682;2023-03-21T05:33:42;13.1;67.6
78448;SHT31;67742;51.972;5.682;2023-03-21T05:36:13;13.1;67.7
78448;SHT31;67742;51.972;5.682;2023-03-21T05:38:43;13.1;67.5
78448;SHT31;67742;51.972;5.682;2023-03-21T05:41:16;13.1;67.7
78448;SHT31;67742;51.972;5.682;2023-03-21T05:43:59;13.1;67.4
78448;SHT31;67742;51.972;5.682;2023-03-21T05:46:30;13.1;67.3
78448;SHT31;67742;51.972;5.682;2023-03-21T05:49:03;13.1;67.4
78448;SHT31;67742;51.972;5.682;2023-03-21T05:51:35;13.1;67.4
78448;SHT31;67742;51.972;5.682;2023-03-21T05:54:34;13.2;67.4
78448;SHT31;67742;51.972;5.682;2023-03-21T05:57:13;13.2;67.4
78448;SHT31;67742;51.972;5.682;2023-03-21T05:59:46;13.2;67.4
78448;SHT31;67742;51.972;5.682;2023-03-21T06:02:15;13.2;67.4
78448;SHT31;67742;51.972;5.682;2023-03-21T06:04:51;13.2;67.5
78448;SHT31;67742;51.972;5.682;2023-03-21T06:07:22;13.2;67.4
78448;SHT31;67742;51.972;5.682;2023-03-21T06:10:13;13.2;67.5
78448;SHT31;67742;51.972;5.682;2023-03-21T06:12:43;13.2;67.5
78448;SHT31;67742;51.972;5.682;2023-03-21T06:16:07;13.2;67.3
78448;SHT31;67742;51.972;5.682;2023-03-21T06:22:25;13.3;67.1
78448;SHT31;67742;51.972;5.682;2023-03-21T06:26:41;13.3;66.5
78448;SHT31;67742;51.972;5.682;2023-03-21T06:29:13;13.3;66.5
78448;SHT31;67742;51.972;5.682;2023-03-21T06:31:43;13.3;66.4
78448;SHT31;67742;51.972;5.682;2023-03-21T06:34:13;13.3;66.1
78448;SHT31;67742;51.972;5.682;2023-03-21T06:36:45;13.3;66.1
78448;SHT31;67742;51.972;5.682;2023-03-21T06:39:18;13.3;66.4
78448;SHT31;67742;51.972;5.682;2023-03-21T06:41:51;13.3;66.4
78448;SHT31;67742;51.972;5.682;2023-03-21T06:44:22;13.3;66.4
78448;SHT31;67742;51.972;5.682;2023-03-21T06:46:53;13.3;66.4
78448;SHT31;67742;51.972;5.682;2023-03-21T06:49:24;13.3;66.6
78448;SHT31;67742;51.972;5.682;2023-03-21T06:51:56;13.3;66.6
78448;SHT31;67742;51.972;5.682;2023-03-21T06:54:26;13.3;66.6
78448;SHT31;67742;51.972;5.682;2023-03-21T06:56:57;13.2;66.7
78448;SHT31;67742;51.972;5.682;2023-03-21T06:59:27;13.2;66.6
78448;SHT31;67742;51.972;5.682;2023-03-21T07:01:58;13.2;66.5
78448;SHT31;67742;51.972;5.682;2023-03-21T07:04:28;13.2;66.7
78448;SHT31;67742;51.972;5.682;2023-03-21T07:06:58;13.2;66.6
78448;SHT31;67742;51.972;5.682;2023-03-21T07:09:29;13.2;66.9
78448;SHT31;67742;51.972;5.682;2023-03-21T07:12:00;13.2;66.8
78448;SHT31;67742;51.972;5.682;2023-03-21T07:14:31;13.2;67.1
78448;SHT31;67742;51.972;5.682;2023-03-21T07:17:04;13.2;67.3
78448;SHT31;67742;51.972;5.682;2023-03-21T07:19:36;13.2;67.2
78448;SHT31;67742;51.972;5.682;2023-03-21T07:22:11;13.3;67.4
78448;SHT31;67742;51.972;5.682;2023-03-21T07:24:42;13.3;67.5
78448;SHT31;67742;51.972;5.682;2023-03-21T07:27:15;13.3;67.6
78448;SHT31;67742;51.972;5.682;2023-03-21T07:29:47;13.3;67.4
78448;SHT31;67742;51.972;5.682;2023-03-21T07:32:19;13.3;67.4
78448;SHT31;67742;51.972;5.682;2023-03-21T07:34:48;13.3;67.3
78448;SHT31;67742;51.972;5.682;2023-03-21T07:37:18;13.3;67.3
78448;SHT31;67742;51.972;5.682;2023-03-21T07:39:48;13.3;67.3
78448;SHT31;67742;51.972;5.682;2023-03-21T07:42:18;13.3;67.5
78448;SHT31;67742;51.972;5.682;2023-03-21T07:44:49;13.3;67.7
78448;SHT31;67742;51.972;5.682;2023-03-21T07:47:21;13.3;67.4
78448;SHT31;67742;51.972;5.682;2023-03-21T07:49:51;13.3;67.7
78448;SHT31;67742;51.972;5.682;2023-03-21T07:52:22;13.3;68.0
78448;SHT31;67742;51.972;5.682;2023-03-21T07:54:51;13.3;68.1
78448;SHT31;67742;51.972;5.682;2023-03-21T07:57:23;13.3;68.2
78448;SHT31;67742;51.972;5.682;2023-03-21T07:59:53;13.3;68.6
78448;SHT31;67742;51.972;5.682;2023-03-21T08:02:23;13.3;68.9
78448;SHT31;67742;51.972;5.682;2023-03-21T08:04:55;13.3;68.7
78448;SHT31;67742;51.972;5.682;2023-03-21T08:07:25;13.3;68.9
78448;SHT31;67742;51.972;5.682;2023-03-21T08:09:56;13.3;69.0
78448;SHT31;67742;51.972;5.682;2023-03-21T08:12:26;13.3;68.5
78448;SHT31;67742;51.972;5.682;2023-03-21T08:14:56;13.3;68.7
78448;SHT31;67742;51.972;5.682;2023-03-21T08:17:27;13.3;68.8
78448;SHT31;67742;51.972;5.682;2023-03-21T08:19:58;13.3;69.0
78448;SHT31;67742;51.972;5.682;2023-03-21T08:22:28;13.3;68.9
78448;SHT31;67742;51.972;5.682;2023-03-21T08:24:58;13.3;69.1
78448;SHT31;67742;51.972;5.682;2023-03-21T08:27:28;13.3;69.2
78448;SHT31;67742;51.972;5.682;2023-03-21T08:29:58;13.3;69.3
78448;SHT31;67742;51.972;5.682;2023-03-21T08:32:29;13.3;69.2
78448;SHT31;67742;51.972;5.682;2023-03-21T08:35:01;13.3;69.1
78448;SHT31;67742;51.972;5.682;2023-03-21T08:37:34;13.4;68.8
78448;SHT31;67742;51.972;5.682;2023-03-21T08:40:11;13.4;68.7
78448;SHT31;67742;51.972;5.682;2023-03-21T08:42:43;13.4;68.6
78448;SHT31;67742;51.972;5.682;2023-03-21T08:45:18;13.4;68.7
78448;SHT31;67742;51.972;5.682;2023-03-21T08:47:54;13.5;69.1
78448;SHT31;67742;51.972;5.682;2023-03-21T08:50:25;13.5;69.2
78448;SHT31;67742;51.972;5.682;2023-03-21T08:52:58;13.5;69.5
78448;SHT31;67742;51.972;5.682;2023-03-21T08:55:29;13.5;69.0
78448;SHT31;67742;51.972;5.682;2023-03-21T08:58:01;13.6;68.7
78448;SHT31;67742;51.972;5.682;2023-03-21T09:00:31;13.6;68.7
78448;SHT31;67742;51.972;5.682;2023-03-21T09:03:01;13.6;68.6
78448;SHT31;67742;51.972;5.682;2023-03-21T09:05:32;13.6;68.6
78448;SHT31;67742;51.972;5.682;2023-03-21T09:08:04;13.6;68.3
78448;SHT31;67742;51.972;5.682;2023-03-21T09:10:34;13.6;68.3
78448;SHT31;67742;51.972;5.682;2023-03-21T09:13:09;13.7;68.3
78448;SHT31;67742;51.972;5.682;2023-03-21T09:15:40;13.7;69.1
78448;SHT31;67742;51.972;5.682;2023-03-21T09:18:11;13.7;68.8
78448;SHT31;67742;51.972;5.682;2023-03-21T09:20:44;13.8;69.1
78448;SHT31;67742;51.972;5.682;2023-03-21T09:23:16;13.8;68.8
78448;SHT31;67742;51.972;5.682;2023-03-21T09:25:46;13.9;68.8
78448;SHT31;67742;51.972;5.682;2023-03-21T09:28:17;13.9;68.4
78448;SHT31;67742;51.972;5.682;2023-03-21T09:30:48;14.0;68.5
78448;SHT31;67742;51.972;5.682;2023-03-21T09:33:18;14.0;68.7
78448;SHT31;67742;51.972;5.682;2023-03-21T09:35:53;14.0;68.7
78448;SHT31;67742;51.972;5.682;2023-03-21T09:38:28;14.1;68.8
78448;SHT31;67742;51.972;5.682;2023-03-21T09:41:11;14.1;68.2
78448;SHT31;67742;51.972;5.682;2023-03-21T09:44:01;14.1;68.3
78448;SHT31;67742;51.972;5.682;2023-03-21T09:46:47;14.1;68.1
78448;SHT31;67742;51.972;5.682;2023-03-21T09:49:24;14.2;67.9
78448;SHT31;67742;51.972;5.682;2023-03-21T09:51:58;14.2;67.9
78448;SHT31;67742;51.972;5.682;2023-03-21T09:54:36;14.2;67.8
78448;SHT31;67742;51.972;5.682;2023-03-21T09:57:17;14.3;67.9
78448;SHT31;67742;51.972;5.682;2023-03-21T09:59:51;14.3;67.4
78448;SHT31;67742;51.972;5.682;2023-03-21T10:02:39;14.3;66.9
78448;SHT31;67742;51.972;5.682;2023-03-21T10:05:23;14.3;66.7
78448;SHT31;67742;51.972;5.682;2023-03-21T10:07:59;14.3;66.9
78448;SHT31;67742;51.972;5.682;2023-03-21T10:10:35;14.3;66.4
78448;SHT31;67742;51.972;5.682;2023-03-21T10:13:14;14.3;67.4
78448;SHT31;67742;51.972;5.682;2023-03-21T10:15:59;14.3;67.5
78448;SHT31;67742;51.972;5.682;2023-03-21T10:18:38;14.3;67.2
78448;SHT31;67742;51.972;5.682;2023-03-21T10:21:21;14.3;66.8
78448;SHT31;67742;51.972;5.682;2023-03-21T10:23:54;14.3;67.1
78448;SHT31;67742;51.972;5.682;2023-03-21T10:26:32;14.3;66.8
78448;SHT31;67742;51.972;5.682;2023-03-21T10:29:02;14.4;66.1
78448;SHT31;67742;51.972;5.682;2023-03-21T10:31:32;14.4;66.7
78448;SHT31;67742;51.972;5.682;2023-03-21T10:34:14;14.4;66.2
78448;SHT31;67742;51.972;5.682;2023-03-21T10:36:45;14.4;66.3
78448;SHT31;67742;51.972;5.682;2023-03-21T10:39:23;14.4;66.3
78448;SHT31;67742;51.972;5.682;2023-03-21T10:41:53;14.4;66.5
78448;SHT31;67742;51.972;5.682;2023-03-21T10:44:30;14.4;66.6
78448;SHT31;67742;51.972;5.682;2023-03-21T10:47:04;14.4;66.6
78448;SHT31;67742;51.972;5.682;2023-03-21T10:49:35;14.5;66.1
78448;SHT31;67742;51.972;5.682;2023-03-21T10:52:08;14.5;66.4
78448;SHT31;67742;51.972;5.682;2023-03-21T10:54:40;14.6;66.7
78448;SHT31;67742;51.972;5.682;2023-03-21T10:57:15;14.6;67.5
78448;SHT31;67742;51.972;5.682;2023-03-21T10:59:51;14.6;66.7
78448;SHT31;67742;51.972;5.682;2023-03-21T11:02:25;14.7;66.4
78448;SHT31;67742;51.972;5.682;2023-03-21T11:05:06;14.7;65.2
78448;SHT31;67742;51.972;5.682;2023-03-21T11:07:37;14.8;65.8
78448;SHT31;67742;51.972;5.682;2023-03-21T11:10:15;14.8;65.5
78448;SHT31;67742;51.972;5.682;2023-03-21T11:12:49;14.9;65.4
78448;SHT31;67742;51.972;5.682;2023-03-21T11:15:29;14.9;65.3
78448;SHT31;67742;51.972;5.682;2023-03-21T11:18:01;14.9;64.8
78448;SHT31;67742;51.972;5.682;2023-03-21T11:20:43;15.0;65.0
78448;SHT31;67742;51.972;5.682;2023-03-21T11:23:18;15.0;64.7
78448;SHT31;67742;51.972;5.682;2023-03-21T11:25:49;15.0;64.8
78448;SHT31;67742;51.972;5.682;2023-03-21T11:28:23;15.1;64.2
78448;SHT31;67742;51.972;5.682;2023-03-21T11:30:57;15.1;64.0
78448;SHT31;67742;51.972;5.682;2023-03-21T11:33:33;15.1;63.7
78448;SHT31;67742;51.972;5.682;2023-03-21T11:36:06;15.1;64.1
78448;SHT31;67742;51.972;5.682;2023-03-21T11:38:38;15.2;64.0
78448;SHT31;67742;51.972;5.682;2023-03-21T11:41:09;15.2;63.8
78448;SHT31;67742;51.972;5.682;2023-03-21T11:43:51;15.2;64.6
78448;SHT31;67742;51.972;5.682;2023-03-21T11:46:25;15.3;64.8
78448;SHT31;67742;51.972;5.682;2023-03-21T11:48:58;15.4;64.2
78448;SHT31;67742;51.972;5.682;2023-03-21T11:51:36;15.4;63.3
78448;SHT31;67742;51.972;5.682;2023-03-21T11:54:15;15.5;62.8
78448;SHT31;67742;51.972;5.682;2023-03-21T11:56:51;15.5;61.7
78448;SHT31;67742;51.972;5.682;2023-03-21T11:59:35;15.5;62.1
78448;SHT31;67742;51.972;5.682;2023-03-21T12:02:35;15.6;62.3
78448;SHT31;67742;51.972;5.682;2023-03-21T12:05:15;15.6;62.0
78448;SHT31;67742;51.972;5.682;2023-03-21T12:07:59;15.6;62.1
78448;SHT31;67742;51.972;5.682;2023-03-21T12:10:42;15.6;61.8
78448;SHT31;67742;51.972;5.682;2023-03-21T12:13:38;15.7;61.1
78448;SHT31;67742;51.972;5.682;2023-03-21T12:16:21;15.7;60.6
78448;SHT31;67742;51.972;5.682;2023-03-21T12:19:22;15.7;60.3
78448;SHT31;67742;51.972;5.682;2023-03-21T12:22:09;15.7;61.3
78448;SHT31;67742;51.972;5.682;2023-03-21T12:24:48;15.7;60.5
78448;SHT31;67742;51.972;5.682;2023-03-21T12:27:26;15.7;61.0
78448;SHT31;67742;51.972;5.682;2023-03-21T12:30:15;15.7;61.0
78448;SHT31;67742;51.972;5.682;2023-03-21T12:33:05;15.7;60.7
78448;SHT31;67742;51.972;5.682;2023-03-21T12:35:52;15.7;61.3
78448;SHT31;67742;51.972;5.682;2023-03-21T12:38:29;15.7;61.9
78448;SHT31;67742;51.972;5.682;2023-03-21T12:41:43;15.8;60.9
78448;SHT31;67742;51.972;5.682;2023-03-21T12:44:19;15.8;60.3
78448;SHT31;67742;51.972;5.682;2023-03-21T12:46:54;15.8;60.4
78448;SHT31;67742;51.972;5.682;2023-03-21T12:49:29;15.8;60.3
78448;SHT31;67742;51.972;5.682;2023-03-21T12:52:05;15.9;60.4
78448;SHT31;67742;51.972;5.682;2023-03-21T12:54:39;15.9;60.2
78448;SHT31;67742;51.972;5.682;2023-03-21T12:57:16;16.0;59.4
78448;SHT31;67742;51.972;5.682;2023-03-21T12:59:53;16.0;59.1
78448;SHT31;67742;51.972;5.682;2023-03-21T13:02:29;16.0;59.1
78448;SHT31;67742;51.972;5.682;2023-03-21T13:05:05;16.0;58.5
78448;SHT31;67742;51.972;5.682;2023-03-21T13:07:44;16.1;58.1
78448;SHT31;67742;51.972;5.682;2023-03-21T13:10:18;16.1;58.0
78448;SHT31;67742;51.972;5.682;2023-03-21T13:13:04;16.1;58.0
78448;SHT31;67742;51.972;5.682;2023-03-21T13:16:03;16.1;57.7
78448;SHT31;67742;51.972;5.682;2023-03-21T13:18:52;16.1;57.4
78448;SHT31;67742;51.972;5.682;2023-03-21T13:21:39;16.1;57.7
78448;SHT31;67742;51.972;5.682;2023-03-21T13:24:24;16.1;58.1
78448;SHT31;67742;51.972;5.682;2023-03-21T13:27:27;16.1;57.9
78448;SHT31;67742;51.972;5.682;2023-03-21T13:29:57;16.1;58.3
78448;SHT31;67742;51.972;5.682;2023-03-21T13:32:31;16.1;59.4
78448;SHT31;67742;51.972;5.682;2023-03-21T13:35:14;16.2;58.9
78448;SHT31;67742;51.972;5.682;2023-03-21T13:37:52;16.2;58.8
78448;SHT31;67742;51.972;5.682;2023-03-21T13:40:27;16.3;58.4
78448;SHT31;67742;51.972;5.682;2023-03-21T13:42:58;16.3;57.6
78448;SHT31;67742;51.972;5.682;2023-03-21T13:45:34;16.4;58.0
78448;SHT31;67742;51.972;5.682;2023-03-21T13:48:26;16.4;57.6
78448;SHT31;67742;51.972;5.682;2023-03-21T13:51:03;16.4;56.8
78448;SHT31;67742;51.972;5.682;2023-03-21T13:53:38;16.4;57.8
78448;SHT31;67742;51.972;5.682;2023-03-21T13:56:24;16.5;56.4
78448;SHT31;67742;51.972;5.682;2023-03-21T13:59:02;16.5;55.9
78448;SHT31;67742;51.972;5.682;2023-03-21T14:02:35;16.5;56.3
78448;SHT31;67742;51.972;5.682;2023-03-21T14:05:21;16.5;56.0
78448;SHT31;67742;51.972;5.682;2023-03-21T14:07:55;16.5;55.6
78448;SHT31;67742;51.972;5.682;2023-03-21T14:10:32;16.6;53.9
78448;SHT31;67742;51.972;5.682;2023-03-21T14:13:04;16.6;54.4
78448;SHT31;67742;51.972;5.682;2023-03-21T14:15:43;16.6;54.2
78448;SHT31;67742;51.972;5.682;2023-03-21T14:18:17;16.6;54.1
78448;SHT31;67742;51.972;5.682;2023-03-21T14:20:53;16.6;53.6
78448;SHT31;67742;51.972;5.682;2023-03-21T14:23:24;16.6;53.2
78448;SHT31;67742;51.972;5.682;2023-03-21T14:25:55;16.6;53.2
78448;SHT31;67742;51.972;5.682;2023-03-21T14:28:27;16.6;53.4
78448;SHT31;67742;51.972;5.682;2023-03-21T14:31:00;16.6;52.6
78448;SHT31;67742;51.972;5.682;2023-03-21T14:33:34;16.6;52.7
78448;SHT31;67742;51.972;5.682;2023-03-21T14:36:12;16.6;53.2
78448;SHT31;67742;51.972;5.682;2023-03-21T14:38:55;16.6;54.0
78448;SHT31;67742;51.972;5.682;2023-03-21T14:41:27;16.7;53.5
78448;SHT31;67742;51.972;5.682;2023-03-21T14:44:18;16.7;52.8
78448;SHT31;67742;51.972;5.682;2023-03-21T14:47:01;16.7;52.6
78448;SHT31;67742;51.972;5.682;2023-03-21T14:49:33;16.7;52.6
78448;SHT31;67742;51.972;5.682;2023-03-21T14:52:06;16.7;53.1
78448;SHT31;67742;51.972;5.682;2023-03-21T14:54:44;16.7;52.9
78448;SHT31;67742;51.972;5.682;2023-03-21T14:57:19;16.6;52.6
78448;SHT31;67742;51.972;5.682;2023-03-21T14:59:55;16.6;52.9
78448;SHT31;67742;51.972;5.682;2023-03-21T15:02:31;16.6;53.5
78448;SHT31;67742;51.972;5.682;2023-03-21T15:05:14;16.6;53.8
78448;SHT31;67742;51.972;5.682;2023-03-21T15:07:56;16.6;54.4
78448;SHT31;67742;51.972;5.682;2023-03-21T15:10:29;16.7;54.0
78448;SHT31;67742;51.972;5.682;2023-03-21T15:13:10;16.7;53.6
78448;SHT31;67742;51.972;5.682;2023-03-21T15:15:39;16.7;53.0
78448;SHT31;67742;51.972;5.682;2023-03-21T15:18:13;16.7;53.2
78448;SHT31;67742;51.972;5.682;2023-03-21T15:20:47;16.7;53.8
78448;SHT31;67742;51.972;5.682;2023-03-21T15:23:29;16.7;53.5
78448;SHT31;67742;51.972;5.682;2023-03-21T15:26:02;16.7;53.8
78448;SHT31;67742;51.972;5.682;2023-03-21T15:28:34;16.7;53.7
78448;SHT31;67742;51.972;5.682;2023-03-21T15:31:15;16.6;53.7
78448;SHT31;67742;51.972;5.682;2023-03-21T15:33:49;16.6;54.4
78448;SHT31;67742;51.972;5.682;2023-03-21T15:36:22;16.6;54.6
78448;SHT31;67742;51.972;5.682;2023-03-21T15:38:56;16.6;54.4
78448;SHT31;67742;51.972;5.682;2023-03-21T15:41:31;16.6;54.1
78448;SHT31;67742;51.972;5.682;2023-03-21T15:44:05;16.6;54.3
78448;SHT31;67742;51.972;5.682;2023-03-21T15:46:41;16.6;54.4
78448;SHT31;67742;51.972;5.682;2023-03-21T15:49:25;16.6;54.8
78448;SHT31;67742;51.972;5.682;2023-03-21T15:51:59;16.6;54.7
78448;SHT31;67742;51.972;5.682;2023-03-21T15:54:31;16.6;54.7
78448;SHT31;67742;51.972;5.682;2023-03-21T15:57:05;16.6;54.7
78448;SHT31;67742;51.972;5.682;2023-03-21T15:59:41;16.6;55.0
78448;SHT31;67742;51.972;5.682;2023-03-21T16:02:22;16.6;55.2
78448;SHT31;67742;51.972;5.682;2023-03-21T16:04:59;16.6;55.0
78448;SHT31;67742;51.972;5.682;2023-03-21T16:07:32;16.6;55.4
78448;SHT31;67742;51.972;5.682;2023-03-21T16:10:14;16.5;55.4
78448;SHT31;67742;51.972;5.682;2023-03-21T16:12:47;16.5;55.7
78448;SHT31;67742;51.972;5.682;2023-03-21T16:15:19;16.6;55.5
78448;SHT31;67742;51.972;5.682;2023-03-21T16:17:52;16.6;55.4
78448;SHT31;67742;51.972;5.682;2023-03-21T16:20:25;16.6;55.6
78448;SHT31;67742;51.972;5.682;2023-03-21T16:22:55;16.6;55.6
78448;SHT31;67742;51.972;5.682;2023-03-21T16:25:29;16.6;55.5
78448;SHT31;67742;51.972;5.682;2023-03-21T16:27:59;16.5;55.3
78448;SHT31;67742;51.972;5.682;2023-03-21T16:30:30;16.5;55.4
78448;SHT31;67742;51.972;5.682;2023-03-21T16:33:01;16.5;55.4
78448;SHT31;67742;51.972;5.682;2023-03-21T16:35:30;16.5;55.5
78448;SHT31;67742;51.972;5.682;2023-03-21T16:38:00;16.5;55.2
78448;SHT31;67742;51.972;5.682;2023-03-21T16:40:34;16.4;55.3
78448;SHT31;67742;51.972;5.682;2023-03-21T16:43:08;16.4;55.7
78448;SHT31;67742;51.972;5.682;2023-03-21T16:45:41;16.3;55.8
78448;SHT31;67742;51.972;5.682;2023-03-21T16:48:12;16.3;56.1
78448;SHT31;67742;51.972;5.682;2023-03-21T16:50:47;16.2;56.8
78448;SHT31;67742;51.972;5.682;2023-03-21T16:53:17;16.2;56.9
78448;SHT31;67742;51.972;5.682;2023-03-21T16:55:48;16.1;57.3
78448;SHT31;67742;51.972;5.682;2023-03-21T16:58:18;16.1;57.4
78448;SHT31;67742;51.972;5.682;2023-03-21T17:00:51;16.0;57.9
78448;SHT31;67742;51.972;5.682;2023-03-21T17:03:21;16.0;57.9
78448;SHT31;67742;51.972;5.682;2023-03-21T17:05:52;16.0;58.2